You are not logged in, Click here to log in
ICAO: PGSN Country: 北馬里亞納群島的最大機場,也是塞班島唯一機場
Latitude: 15.119 Longitude: 145.729
Total Arrivals: 3 Total Departures: 3
Latest Arrival: ABBR208 (RCTP-PGSN)Meng Sheng. Chan Latest Departure: 9K2928 (PGSN-PGUM)Meng Sheng. Chan
Scenery:
METAR : PGSN 261054Z 10005KT 10SM SCT018 28/24 A2991 RMK AO2 SLP149 T02780239 $

塞班國際機場SPN